sensor_id;sensor_type;location;lat;lon;timestamp;P1;durP1;ratioP1;P2;durP2;ratioP2
15151;SDS011;7676;50.900;6.234;2022-11-15T00:03:14;7.30;;;6.13;;
15151;SDS011;7676;50.900;6.234;2022-11-15T00:08:36;6.90;;;6.20;;
15151;SDS011;7676;50.900;6.234;2022-11-15T00:13:57;7.43;;;5.93;;
15151;SDS011;7676;50.900;6.234;2022-11-15T00:19:19;6.70;;;5.47;;
15151;SDS011;7676;50.900;6.234;2022-11-15T00:24:39;8.17;;;6.67;;
15151;SDS011;7676;50.900;6.234;2022-11-15T00:30:01;6.60;;;5.47;;
15151;SDS011;7676;50.900;6.234;2022-11-15T00:35:22;6.30;;;5.50;;
15151;SDS011;7676;50.900;6.234;2022-11-15T00:40:43;5.20;;;4.40;;
15151;SDS011;7676;50.900;6.234;2022-11-15T00:46:05;4.50;;;4.03;;
15151;SDS011;7676;50.900;6.234;2022-11-15T00:51:26;4.57;;;4.17;;
15151;SDS011;7676;50.900;6.234;2022-11-15T00:56:46;5.97;;;5.00;;
15151;SDS011;7676;50.900;6.234;2022-11-15T01:02:08;5.10;;;4.60;;
15151;SDS011;7676;50.900;6.234;2022-11-15T01:07:29;5.07;;;4.30;;
15151;SDS011;7676;50.900;6.234;2022-11-15T01:12:49;6.03;;;4.40;;
15151;SDS011;7676;50.900;6.234;2022-11-15T01:18:10;5.47;;;4.30;;
15151;SDS011;7676;50.900;6.234;2022-11-15T01:23:31;5.07;;;4.57;;
15151;SDS011;7676;50.900;6.234;2022-11-15T01:28:52;5.00;;;4.50;;
15151;SDS011;7676;50.900;6.234;2022-11-15T01:34:14;5.67;;;3.83;;
15151;SDS011;7676;50.900;6.234;2022-11-15T01:39:35;5.87;;;3.97;;
15151;SDS011;7676;50.900;6.234;2022-11-15T01:44:56;4.07;;;3.67;;
15151;SDS011;7676;50.900;6.234;2022-11-15T01:50:21;4.00;;;3.60;;
15151;SDS011;7676;50.900;6.234;2022-11-15T01:55:44;6.20;;;4.33;;
15151;SDS011;7676;50.900;6.234;2022-11-15T02:01:05;4.60;;;3.93;;
15151;SDS011;7676;50.900;6.234;2022-11-15T02:06:26;5.00;;;4.50;;
15151;SDS011;7676;50.900;6.234;2022-11-15T02:11:47;4.03;;;3.17;;
15151;SDS011;7676;50.900;6.234;2022-11-15T02:28:48;4.53;;;3.90;;
15151;SDS011;7676;50.900;6.234;2022-11-15T02:34:44;3.50;;;3.20;;
15151;SDS011;7676;50.900;6.234;2022-11-15T02:45:47;6.53;;;3.93;;
15151;SDS011;7676;50.900;6.234;2022-11-15T02:51:12;3.90;;;3.50;;
15151;SDS011;7676;50.900;6.234;2022-11-15T02:56:35;4.73;;;3.87;;
15151;SDS011;7676;50.900;6.234;2022-11-15T03:13:25;4.77;;;4.33;;
15151;SDS011;7676;50.900;6.234;2022-11-15T03:18:51;4.70;;;4.13;;
15151;SDS011;7676;50.900;6.234;2022-11-15T03:24:16;4.50;;;4.07;;
15151;SDS011;7676;50.900;6.234;2022-11-15T03:29:50;4.53;;;4.13;;
15151;SDS011;7676;50.900;6.234;2022-11-15T03:35:17;5.50;;;4.40;;
15151;SDS011;7676;50.900;6.234;2022-11-15T03:40:42;4.27;;;3.87;;
15151;SDS011;7676;50.900;6.234;2022-11-15T03:46:13;4.87;;;4.10;;
15151;SDS011;7676;50.900;6.234;2022-11-15T03:51:36;4.30;;;3.90;;
15151;SDS011;7676;50.900;6.234;2022-11-15T03:56:57;4.10;;;3.57;;
15151;SDS011;7676;50.900;6.234;2022-11-15T04:02:18;5.00;;;3.80;;
15151;SDS011;7676;50.900;6.234;2022-11-15T04:07:39;3.13;;;2.90;;
15151;SDS011;7676;50.900;6.234;2022-11-15T04:13:01;2.90;;;2.70;;
15151;SDS011;7676;50.900;6.234;2022-11-15T04:18:23;3.90;;;3.27;;
15151;SDS011;7676;50.900;6.234;2022-11-15T04:23:44;3.57;;;3.27;;
15151;SDS011;7676;50.900;6.234;2022-11-15T04:29:24;2.83;;;2.63;;
15151;SDS011;7676;50.900;6.234;2022-11-15T04:34:54;3.27;;;2.60;;
15151;SDS011;7676;50.900;6.234;2022-11-15T04:40:15;3.00;;;2.70;;
15151;SDS011;7676;50.900;6.234;2022-11-15T04:45:36;3.37;;;2.97;;
15151;SDS011;7676;50.900;6.234;2022-11-15T04:50:57;3.27;;;2.97;;
15151;SDS011;7676;50.900;6.234;2022-11-15T04:56:18;2.57;;;2.37;;
15151;SDS011;7676;50.900;6.234;2022-11-15T05:01:39;3.47;;;2.97;;
15151;SDS011;7676;50.900;6.234;2022-11-15T05:07:05;2.10;;;1.67;;
15151;SDS011;7676;50.900;6.234;2022-11-15T05:12:26;1.77;;;1.60;;
15151;SDS011;7676;50.900;6.234;2022-11-15T05:17:47;1.60;;;1.50;;
15151;SDS011;7676;50.900;6.234;2022-11-15T05:23:08;1.60;;;1.50;;
15151;SDS011;7676;50.900;6.234;2022-11-15T05:28:29;1.10;;;1.00;;
15151;SDS011;7676;50.900;6.234;2022-11-15T05:33:51;2.37;;;0.93;;
15151;SDS011;7676;50.900;6.234;2022-11-15T05:39:13;1.10;;;1.00;;
15151;SDS011;7676;50.900;6.234;2022-11-15T05:44:35;1.10;;;1.00;;
15151;SDS011;7676;50.900;6.234;2022-11-15T05:49:57;1.10;;;1.00;;
15151;SDS011;7676;50.900;6.234;2022-11-15T05:55:19;1.10;;;0.80;;
15151;SDS011;7676;50.900;6.234;2022-11-15T06:00:40;0.70;;;0.70;;
15151;SDS011;7676;50.900;6.234;2022-11-15T06:06:03;1.80;;;0.80;;
15151;SDS011;7676;50.900;6.234;2022-11-15T06:11:24;1.07;;;0.97;;
15151;SDS011;7676;50.900;6.234;2022-11-15T06:16:46;0.87;;;0.60;;
15151;SDS011;7676;50.900;6.234;2022-11-15T06:22:08;1.47;;;0.80;;
15151;SDS011;7676;50.900;6.234;2022-11-15T06:27:29;1.40;;;1.00;;
15151;SDS011;7676;50.900;6.234;2022-11-15T06:32:50;1.67;;;1.00;;
15151;SDS011;7676;50.900;6.234;2022-11-15T06:38:12;1.77;;;1.00;;
15151;SDS011;7676;50.900;6.234;2022-11-15T06:43:33;1.87;;;1.40;;
15151;SDS011;7676;50.900;6.234;2022-11-15T06:48:55;1.57;;;1.00;;
15151;SDS011;7676;50.900;6.234;2022-11-15T06:54:16;1.70;;;1.30;;
15151;SDS011;7676;50.900;6.234;2022-11-15T06:59:37;3.30;;;1.30;;
15151;SDS011;7676;50.900;6.234;2022-11-15T07:05:00;0.90;;;0.80;;
15151;SDS011;7676;50.900;6.234;2022-11-15T07:10:21;1.13;;;1.00;;
15151;SDS011;7676;50.900;6.234;2022-11-15T07:15:45;1.80;;;1.30;;
15151;SDS011;7676;50.900;6.234;2022-11-15T07:21:07;1.23;;;1.13;;
15151;SDS011;7676;50.900;6.234;2022-11-15T07:26:29;1.33;;;1.20;;
15151;SDS011;7676;50.900;6.234;2022-11-15T07:31:51;2.30;;;2.10;;
15151;SDS011;7676;50.900;6.234;2022-11-15T07:37:11;2.17;;;1.97;;
15151;SDS011;7676;50.900;6.234;2022-11-15T07:42:33;2.17;;;2.07;;
15151;SDS011;7676;50.900;6.234;2022-11-15T07:48:12;1.50;;;1.30;;
15151;SDS011;7676;50.900;6.234;2022-11-15T07:53:33;2.37;;;1.60;;
15151;SDS011;7676;50.900;6.234;2022-11-15T07:58:54;2.30;;;1.63;;
15151;SDS011;7676;50.900;6.234;2022-11-15T08:04:15;2.20;;;1.43;;
15151;SDS011;7676;50.900;6.234;2022-11-15T08:09:36;1.63;;;1.40;;
15151;SDS011;7676;50.900;6.234;2022-11-15T08:14:57;1.57;;;1.13;;
15151;SDS011;7676;50.900;6.234;2022-11-15T08:20:18;3.57;;;1.10;;
15151;SDS011;7676;50.900;6.234;2022-11-15T08:25:40;2.67;;;1.30;;
15151;SDS011;7676;50.900;6.234;2022-11-15T08:31:02;2.30;;;1.00;;
15151;SDS011;7676;50.900;6.234;2022-11-15T08:36:24;2.20;;;1.50;;
15151;SDS011;7676;50.900;6.234;2022-11-15T08:41:56;3.00;;;1.40;;
15151;SDS011;7676;50.900;6.234;2022-11-15T08:47:17;2.97;;;1.90;;
15151;SDS011;7676;50.900;6.234;2022-11-15T08:52:38;3.10;;;1.60;;
15151;SDS011;7676;50.900;6.234;2022-11-15T08:58:00;1.90;;;1.30;;
15151;SDS011;7676;50.900;6.234;2022-11-15T09:03:21;3.23;;;1.00;;
15151;SDS011;7676;50.900;6.234;2022-11-15T09:08:42;2.00;;;1.20;;
15151;SDS011;7676;50.900;6.234;2022-11-15T09:14:12;1.97;;;1.03;;
15151;SDS011;7676;50.900;6.234;2022-11-15T09:19:33;1.43;;;0.93;;
15151;SDS011;7676;50.900;6.234;2022-11-15T09:24:55;2.80;;;1.03;;
15151;SDS011;7676;50.900;6.234;2022-11-15T09:30:16;2.23;;;1.40;;
15151;SDS011;7676;50.900;6.234;2022-11-15T09:35:36;2.00;;;0.90;;
15151;SDS011;7676;50.900;6.234;2022-11-15T09:52:08;1.60;;;1.00;;
15151;SDS011;7676;50.900;6.234;2022-11-15T09:57:13;1.20;;;0.80;;
15151;SDS011;7676;50.900;6.234;2022-11-15T10:08:03;1.63;;;0.80;;
15151;SDS011;7676;50.900;6.234;2022-11-15T10:24:10;2.57;;;1.10;;
15151;SDS011;7676;50.900;6.234;2022-11-15T10:29:18;1.27;;;0.80;;
15151;SDS011;7676;50.900;6.234;2022-11-15T10:34:27;2.03;;;0.90;;
15151;SDS011;7676;50.900;6.234;2022-11-15T10:39:30;2.00;;;0.80;;
15151;SDS011;7676;50.900;6.234;2022-11-15T10:44:32;1.63;;;0.80;;
15151;SDS011;7676;50.900;6.234;2022-11-15T10:49:52;2.43;;;1.30;;
15151;SDS011;7676;50.900;6.234;2022-11-15T10:55:19;2.10;;;0.90;;
15151;SDS011;7676;50.900;6.234;2022-11-15T11:00:27;1.33;;;0.80;;
15151;SDS011;7676;50.900;6.234;2022-11-15T11:05:33;1.13;;;0.70;;
15151;SDS011;7676;50.900;6.234;2022-11-15T11:10:53;2.07;;;0.83;;
15151;SDS011;7676;50.900;6.234;2022-11-15T11:21:22;2.00;;;0.83;;
15151;SDS011;7676;50.900;6.234;2022-11-15T11:42:56;3.67;;;0.93;;
15151;SDS011;7676;50.900;6.234;2022-11-15T11:53:49;3.53;;;1.00;;
15151;SDS011;7676;50.900;6.234;2022-11-15T11:59:00;3.90;;;1.10;;
15151;SDS011;7676;50.900;6.234;2022-11-15T12:19:56;1.77;;;1.00;;
15151;SDS011;7676;50.900;6.234;2022-11-15T12:25:04;2.73;;;0.90;;
15151;SDS011;7676;50.900;6.234;2022-11-15T12:30:19;1.47;;;0.80;;
15151;SDS011;7676;50.900;6.234;2022-11-15T12:46:22;2.53;;;0.60;;
15151;SDS011;7676;50.900;6.234;2022-11-15T12:56:44;2.23;;;1.10;;
15151;SDS011;7676;50.900;6.234;2022-11-15T13:17:33;3.03;;;1.50;;
15151;SDS011;7676;50.900;6.234;2022-11-15T13:22:41;1.33;;;0.90;;
15151;SDS011;7676;50.900;6.234;2022-11-15T13:27:53;1.40;;;0.80;;
15151;SDS011;7676;50.900;6.234;2022-11-15T13:33:09;1.73;;;0.70;;
15151;SDS011;7676;50.900;6.234;2022-11-15T13:38:35;3.30;;;0.90;;
15151;SDS011;7676;50.900;6.234;2022-11-15T13:43:40;1.37;;;0.83;;
15151;SDS011;7676;50.900;6.234;2022-11-15T13:48:43;2.07;;;0.80;;
15151;SDS011;7676;50.900;6.234;2022-11-15T13:53:48;2.87;;;0.90;;
15151;SDS011;7676;50.900;6.234;2022-11-15T13:59:08;1.93;;;0.90;;
15151;SDS011;7676;50.900;6.234;2022-11-15T14:04:38;3.27;;;1.10;;
15151;SDS011;7676;50.900;6.234;2022-11-15T14:09:46;2.10;;;1.07;;
15151;SDS011;7676;50.900;6.234;2022-11-15T14:14:49;1.60;;;1.10;;
15151;SDS011;7676;50.900;6.234;2022-11-15T14:19:52;1.30;;;0.90;;
15151;SDS011;7676;50.900;6.234;2022-11-15T14:30:16;1.23;;;1.03;;
15151;SDS011;7676;50.900;6.234;2022-11-15T14:35:20;3.20;;;0.87;;
15151;SDS011;7676;50.900;6.234;2022-11-15T14:40:24;1.70;;;1.40;;
15151;SDS011;7676;50.900;6.234;2022-11-15T14:45:26;3.40;;;1.93;;
15151;SDS011;7676;50.900;6.234;2022-11-15T14:50:29;3.87;;;2.10;;
15151;SDS011;7676;50.900;6.234;2022-11-15T14:55:35;2.63;;;1.73;;
15151;SDS011;7676;50.900;6.234;2022-11-15T15:00:38;2.13;;;1.27;;
15151;SDS011;7676;50.900;6.234;2022-11-15T15:05:43;1.37;;;1.10;;
15151;SDS011;7676;50.900;6.234;2022-11-15T15:10:45;1.60;;;1.07;;
15151;SDS011;7676;50.900;6.234;2022-11-15T15:15:49;1.53;;;1.43;;
15151;SDS011;7676;50.900;6.234;2022-11-15T15:20:56;2.03;;;1.20;;
15151;SDS011;7676;50.900;6.234;2022-11-15T15:26:04;1.27;;;1.10;;
15151;SDS011;7676;50.900;6.234;2022-11-15T15:31:07;2.37;;;1.53;;
15151;SDS011;7676;50.900;6.234;2022-11-15T15:36:12;3.37;;;1.90;;
15151;SDS011;7676;50.900;6.234;2022-11-15T15:41:16;2.33;;;1.70;;
15151;SDS011;7676;50.900;6.234;2022-11-15T15:46:18;2.07;;;1.80;;
15151;SDS011;7676;50.900;6.234;2022-11-15T15:51:22;2.47;;;1.80;;
15151;SDS011;7676;50.900;6.234;2022-11-15T15:56:24;3.07;;;1.70;;
15151;SDS011;7676;50.900;6.234;2022-11-15T16:01:26;3.23;;;1.73;;
15151;SDS011;7676;50.900;6.234;2022-11-15T16:06:39;3.40;;;1.67;;
15151;SDS011;7676;50.900;6.234;2022-11-15T16:11:46;4.40;;;2.37;;
15151;SDS011;7676;50.900;6.234;2022-11-15T16:16:48;3.77;;;1.70;;
15151;SDS011;7676;50.900;6.234;2022-11-15T16:21:51;2.50;;;1.80;;
15151;SDS011;7676;50.900;6.234;2022-11-15T16:26:57;2.37;;;1.63;;
15151;SDS011;7676;50.900;6.234;2022-11-15T16:31:59;3.03;;;1.60;;
15151;SDS011;7676;50.900;6.234;2022-11-15T16:37:01;2.03;;;1.53;;
15151;SDS011;7676;50.900;6.234;2022-11-15T16:42:04;2.03;;;1.80;;
15151;SDS011;7676;50.900;6.234;2022-11-15T16:47:14;2.70;;;1.83;;
15151;SDS011;7676;50.900;6.234;2022-11-15T16:52:21;2.40;;;2.00;;
15151;SDS011;7676;50.900;6.234;2022-11-15T16:57:23;2.07;;;1.80;;
15151;SDS011;7676;50.900;6.234;2022-11-15T17:02:25;3.57;;;1.80;;
15151;SDS011;7676;50.900;6.234;2022-11-15T17:07:27;2.93;;;1.73;;
15151;SDS011;7676;50.900;6.234;2022-11-15T17:12:30;3.67;;;1.80;;
15151;SDS011;7676;50.900;6.234;2022-11-15T17:17:32;2.60;;;2.00;;
15151;SDS011;7676;50.900;6.234;2022-11-15T17:22:36;3.87;;;2.60;;
15151;SDS011;7676;50.900;6.234;2022-11-15T17:27:38;2.40;;;2.07;;
15151;SDS011;7676;50.900;6.234;2022-11-15T17:32:41;2.80;;;2.10;;
15151;SDS011;7676;50.900;6.234;2022-11-15T17:37:44;3.10;;;2.03;;
15151;SDS011;7676;50.900;6.234;2022-11-15T17:42:47;2.20;;;2.00;;
15151;SDS011;7676;50.900;6.234;2022-11-15T17:47:50;3.17;;;2.10;;
15151;SDS011;7676;50.900;6.234;2022-11-15T17:52:54;3.57;;;2.33;;
15151;SDS011;7676;50.900;6.234;2022-11-15T17:57:58;2.37;;;2.07;;
15151;SDS011;7676;50.900;6.234;2022-11-15T18:03:00;3.53;;;2.70;;
15151;SDS011;7676;50.900;6.234;2022-11-15T18:08:02;2.87;;;2.17;;
15151;SDS011;7676;50.900;6.234;2022-11-15T18:13:05;3.23;;;2.40;;
15151;SDS011;7676;50.900;6.234;2022-11-15T18:18:07;3.63;;;2.53;;
15151;SDS011;7676;50.900;6.234;2022-11-15T18:23:09;3.03;;;2.73;;
15151;SDS011;7676;50.900;6.234;2022-11-15T18:28:12;3.17;;;2.63;;
15151;SDS011;7676;50.900;6.234;2022-11-15T18:33:15;3.77;;;3.00;;
15151;SDS011;7676;50.900;6.234;2022-11-15T18:38:17;3.90;;;2.97;;
15151;SDS011;7676;50.900;6.234;2022-11-15T18:43:19;3.43;;;3.10;;
15151;SDS011;7676;50.900;6.234;2022-11-15T18:48:22;5.30;;;3.27;;
15151;SDS011;7676;50.900;6.234;2022-11-15T18:53:24;4.97;;;3.50;;
15151;SDS011;7676;50.900;6.234;2022-11-15T18:58:30;3.90;;;3.03;;
15151;SDS011;7676;50.900;6.234;2022-11-15T19:03:33;4.63;;;3.00;;
15151;SDS011;7676;50.900;6.234;2022-11-15T19:08:38;3.97;;;3.23;;
15151;SDS011;7676;50.900;6.234;2022-11-15T19:13:41;4.70;;;3.30;;
15151;SDS011;7676;50.900;6.234;2022-11-15T19:18:44;10.50;;;7.73;;
15151;SDS011;7676;50.900;6.234;2022-11-15T19:23:47;3.57;;;3.10;;
15151;SDS011;7676;50.900;6.234;2022-11-15T19:28:50;5.30;;;2.93;;
15151;SDS011;7676;50.900;6.234;2022-11-15T19:33:54;5.80;;;3.37;;
15151;SDS011;7676;50.900;6.234;2022-11-15T19:38:58;5.20;;;3.50;;
15151;SDS011;7676;50.900;6.234;2022-11-15T19:44:01;4.00;;;3.30;;
15151;SDS011;7676;50.900;6.234;2022-11-15T19:49:04;6.60;;;3.60;;
15151;SDS011;7676;50.900;6.234;2022-11-15T19:54:08;3.60;;;2.93;;
15151;SDS011;7676;50.900;6.234;2022-11-15T19:59:11;3.73;;;2.80;;
15151;SDS011;7676;50.900;6.234;2022-11-15T20:04:14;3.97;;;3.20;;
15151;SDS011;7676;50.900;6.234;2022-11-15T20:09:16;3.33;;;3.00;;
15151;SDS011;7676;50.900;6.234;2022-11-15T20:14:19;3.63;;;3.03;;
15151;SDS011;7676;50.900;6.234;2022-11-15T20:19:21;3.77;;;2.87;;
15151;SDS011;7676;50.900;6.234;2022-11-15T20:24:23;3.23;;;2.93;;
15151;SDS011;7676;50.900;6.234;2022-11-15T20:29:27;3.47;;;3.17;;
15151;SDS011;7676;50.900;6.234;2022-11-15T20:34:29;3.27;;;2.97;;
15151;SDS011;7676;50.900;6.234;2022-11-15T20:39:32;3.30;;;3.00;;
15151;SDS011;7676;50.900;6.234;2022-11-15T20:44:35;3.43;;;3.10;;
15151;SDS011;7676;50.900;6.234;2022-11-15T20:49:38;3.97;;;3.50;;
15151;SDS011;7676;50.900;6.234;2022-11-15T20:54:40;4.33;;;3.27;;
15151;SDS011;7676;50.900;6.234;2022-11-15T20:59:46;3.73;;;3.30;;
15151;SDS011;7676;50.900;6.234;2022-11-15T21:04:48;3.23;;;2.93;;
15151;SDS011;7676;50.900;6.234;2022-11-15T21:09:51;3.33;;;3.00;;
15151;SDS011;7676;50.900;6.234;2022-11-15T21:15:13;4.17;;;3.20;;
15151;SDS011;7676;50.900;6.234;2022-11-15T21:20:16;3.93;;;3.33;;
15151;SDS011;7676;50.900;6.234;2022-11-15T21:25:18;4.07;;;3.27;;
15151;SDS011;7676;50.900;6.234;2022-11-15T21:30:21;6.53;;;4.27;;
15151;SDS011;7676;50.900;6.234;2022-11-15T21:35:23;4.50;;;3.43;;
15151;SDS011;7676;50.900;6.234;2022-11-15T21:40:26;5.13;;;3.37;;
15151;SDS011;7676;50.900;6.234;2022-11-15T21:45:28;3.80;;;3.23;;
15151;SDS011;7676;50.900;6.234;2022-11-15T21:50:30;3.80;;;3.40;;
15151;SDS011;7676;50.900;6.234;2022-11-15T21:55:33;3.60;;;3.17;;
15151;SDS011;7676;50.900;6.234;2022-11-15T22:00:35;3.50;;;2.87;;
15151;SDS011;7676;50.900;6.234;2022-11-15T22:05:56;3.93;;;3.13;;
15151;SDS011;7676;50.900;6.234;2022-11-15T22:10:58;3.63;;;3.33;;
15151;SDS011;7676;50.900;6.234;2022-11-15T22:16:01;3.33;;;2.93;;
15151;SDS011;7676;50.900;6.234;2022-11-15T22:21:08;3.10;;;2.90;;
15151;SDS011;7676;50.900;6.234;2022-11-15T22:26:14;3.63;;;3.33;;
15151;SDS011;7676;50.900;6.234;2022-11-15T22:31:25;4.07;;;3.67;;
15151;SDS011;7676;50.900;6.234;2022-11-15T22:36:27;4.20;;;3.73;;
15151;SDS011;7676;50.900;6.234;2022-11-15T22:41:50;5.33;;;4.03;;
15151;SDS011;7676;50.900;6.234;2022-11-15T22:46:52;4.10;;;3.70;;
15151;SDS011;7676;50.900;6.234;2022-11-15T22:51:54;4.80;;;4.40;;
15151;SDS011;7676;50.900;6.234;2022-11-15T22:56:56;4.87;;;4.30;;
15151;SDS011;7676;50.900;6.234;2022-11-15T23:01:59;5.37;;;4.70;;
15151;SDS011;7676;50.900;6.234;2022-11-15T23:07:01;4.87;;;4.47;;
15151;SDS011;7676;50.900;6.234;2022-11-15T23:12:04;5.13;;;4.60;;
15151;SDS011;7676;50.900;6.234;2022-11-15T23:17:25;5.30;;;4.80;;
15151;SDS011;7676;50.900;6.234;2022-11-15T23:22:28;4.93;;;4.53;;
15151;SDS011;7676;50.900;6.234;2022-11-15T23:27:49;5.90;;;5.30;;
15151;SDS011;7676;50.900;6.234;2022-11-15T23:32:51;7.50;;;5.13;;
15151;SDS011;7676;50.900;6.234;2022-11-15T23:38:12;5.47;;;4.50;;
15151;SDS011;7676;50.900;6.234;2022-11-15T23:43:15;5.57;;;5.03;;
15151;SDS011;7676;50.900;6.234;2022-11-15T23:48:17;5.67;;;5.17;;
15151;SDS011;7676;50.900;6.234;2022-11-15T23:53:20;5.67;;;5.07;;
15151;SDS011;7676;50.900;6.234;2022-11-15T23:58:22;5.70;;;5.20;;
